Clackamas, Oregon
Current Conditions -  °F | °C
As of 11:53 PM on Monday 20 Oct 2014 (Local Time) from KTTD Reporting Station
Overcast Overcast  
Wind Chill: 53°   Ceiling: 5500
Heat Index: 53°   Visibility: 10mi
Dew Point: 51°   Wind: 5mph
Humidity: 93%   Direction: 130°SE
Pressure: 29.87"   Gusts: NA
Location:  45.41°N, 122.55°W
Report Text: KTTD 210653Z AUTO 13004KT 10SM BKN055 OVC070 12/11 A2987 RMK AO2 SLP114 T01170106
Loading
Personal Weather Stations






























Interactive Weather Map New forecast layout! Learn more

10-Day Weather Forecast

Advertisements
Track Severe Weather on mobile